createdAt,value
2018-12-09T00:01:16.825Z,98327.09
2018-12-09T00:03:44.217Z,98323.63
2018-12-09T00:06:11.617Z,98330.89
2018-12-09T00:08:39.011Z,98323.39
2018-12-09T00:11:06.434Z,98318.00
2018-12-09T00:13:33.832Z,98315.79
2018-12-09T00:16:01.230Z,98300.24
2018-12-09T00:18:28.641Z,98292.78
2018-12-09T00:20:56.082Z,98310.39
2018-12-09T00:23:23.466Z,98304.27
2018-12-09T00:25:50.866Z,98301.23
2018-12-09T00:28:18.254Z,98279.06
2018-12-09T00:30:45.658Z,98298.66
2018-12-09T00:33:13.060Z,98290.70
2018-12-09T00:35:40.463Z,98281.14
2018-12-09T00:38:07.862Z,98278.06
2018-12-09T00:40:35.283Z,98275.75
2018-12-09T00:43:02.677Z,98266.33
2018-12-09T00:45:30.162Z,98262.19
2018-12-09T00:47:57.606Z,98258.14
2018-12-09T00:50:25.057Z,98249.20
2018-12-09T00:52:52.474Z,98245.64
2018-12-09T00:55:19.861Z,98241.61
2018-12-09T00:57:47.278Z,98248.34
2018-12-09T01:00:14.651Z,98242.09
2018-12-09T01:02:43.000Z,98235.97
2018-12-09T01:05:10.583Z,98232.03
2018-12-09T01:07:37.973Z,98232.55
2018-12-09T01:10:05.787Z,98232.91
2018-12-09T01:12:33.230Z,98236.94
2018-12-09T01:15:00.632Z,98236.08
2018-12-09T01:17:28.048Z,98235.24
2018-12-09T01:19:55.447Z,98251.98
2018-12-09T01:22:22.838Z,98247.59
2018-12-09T01:24:50.274Z,98248.56
2018-12-09T01:27:17.710Z,98248.56
2018-12-09T01:29:46.037Z,98247.22
2018-12-09T01:32:13.436Z,98248.08
2018-12-09T01:34:40.872Z,98251.73
2018-12-09T01:37:08.270Z,98257.74
2018-12-09T01:39:35.677Z,98273.91
2018-12-09T01:42:03.472Z,98285.42
2018-12-09T01:44:30.894Z,98298.88
2018-12-09T01:46:58.294Z,98305.00
2018-12-09T01:49:25.693Z,98306.86
2018-12-09T01:51:53.116Z,98307.83
2018-12-09T01:54:20.868Z,98314.94
2018-12-09T01:56:48.265Z,98315.91
2018-12-09T01:59:15.679Z,98315.42
2018-12-09T02:01:43.543Z,98323.13
2018-12-09T02:04:10.956Z,98320.43
2018-12-09T02:06:38.367Z,98322.77
2018-12-09T02:09:06.617Z,98316.52
2018-12-09T02:11:34.016Z,98315.28
2018-12-09T02:14:01.439Z,98325.09
2018-12-09T02:16:28.842Z,98327.88
2018-12-09T02:19:01.556Z,98330.57
2018-12-09T02:21:28.966Z,98324.36
2018-12-09T02:23:56.382Z,98328.98
2018-12-09T02:26:23.781Z,98337.05
2018-12-09T02:28:51.206Z,98339.88
2018-12-09T02:31:18.643Z,98354.69
2018-12-09T02:33:46.166Z,98350.17
2018-12-09T02:36:13.551Z,98348.31
2018-12-09T02:38:40.957Z,98354.45
2018-12-09T02:41:08.336Z,98353.47
2018-12-09T02:43:35.791Z,98363.75
2018-12-09T02:46:03.205Z,98371.35
2018-12-09T02:48:30.707Z,98368.18
2018-12-09T02:50:58.098Z,98366.83
2018-12-09T02:53:25.519Z,98367.22
2018-12-09T02:55:52.935Z,98373.56
2018-12-09T02:58:20.349Z,98370.48
2018-12-09T03:00:47.724Z,98377.61
2018-12-09T03:03:16.031Z,98371.84
2018-12-09T03:05:43.416Z,98372.83
2018-12-09T03:08:10.806Z,98378.56
2018-12-09T03:10:38.246Z,98380.53
2018-12-09T03:13:05.649Z,98384.95
2018-12-09T03:15:33.551Z,98382.48
2018-12-09T03:18:00.945Z,98385.18
2018-12-09T03:20:28.354Z,98390.66
2018-12-09T03:22:55.934Z,98392.49
2018-12-09T03:25:23.374Z,98391.66
2018-12-09T03:27:51.180Z,98395.19
2018-12-09T03:30:18.751Z,98393.11
2018-12-09T03:32:46.275Z,98402.05
2018-12-09T03:35:13.727Z,98400.22
2018-12-09T03:37:41.116Z,98407.69
2018-12-09T03:40:08.738Z,98402.69
2018-12-09T03:42:36.124Z,98410.38
2018-12-09T03:45:03.541Z,98405.38
2018-12-09T03:47:30.938Z,98408.55
2018-12-09T03:49:58.343Z,98412.84
2018-12-09T03:52:26.147Z,98417.37
2018-12-09T03:54:53.613Z,98421.79
2018-12-09T03:57:21.041Z,98419.67
2018-12-09T03:59:48.538Z,98419.58
2018-12-09T04:02:15.974Z,98411.09
2018-12-09T04:04:43.657Z,98426.56
2018-12-09T04:07:11.141Z,98431.09
2018-12-09T04:09:38.541Z,98431.56
2018-12-09T04:12:05.941Z,98428.52
2018-12-09T04:14:33.386Z,98431.70
2018-12-09T04:17:01.180Z,98433.05
2018-12-09T04:19:28.570Z,98433.66
2018-12-09T04:21:55.964Z,98445.77
2018-12-09T04:24:23.486Z,98449.91
2018-12-09T04:26:50.986Z,98450.39
2018-12-09T04:29:18.769Z,98423.21
2018-12-09T04:31:46.179Z,98449.66
2018-12-09T04:34:13.566Z,98456.52
2018-12-09T04:36:40.954Z,98452.95
2018-12-09T04:39:08.448Z,98459.30
2018-12-09T04:41:36.153Z,98462.64
2018-12-09T04:44:03.651Z,98463.77
2018-12-09T04:46:31.078Z,98473.83
2018-12-09T04:48:58.625Z,98468.70
2018-12-09T04:51:30.477Z,98476.64
2018-12-09T04:53:57.876Z,98476.64
2018-12-09T04:56:25.291Z,98473.86
2018-12-09T04:58:58.148Z,98477.77
2018-12-09T05:01:25.550Z,98479.59
2018-12-09T05:03:52.935Z,98475.94
2018-12-09T05:06:20.425Z,98480.46
2018-12-09T05:08:47.804Z,98484.02
2018-12-09T05:11:15.206Z,98475.08
2018-12-09T05:13:42.601Z,98492.84
2018-12-09T05:16:09.998Z,98489.50
2018-12-09T05:18:37.430Z,98497.97
2018-12-09T05:21:04.828Z,98499.70
2018-12-09T05:23:32.209Z,98498.45
2018-12-09T05:25:59.607Z,98504.31
2018-12-09T05:28:27.018Z,98505.66
2018-12-09T05:30:54.430Z,98508.48
2018-12-09T05:33:22.746Z,98515.70
2018-12-09T05:35:50.173Z,98511.66
2018-12-09T05:38:17.574Z,98516.70
2018-12-09T05:40:45.123Z,98514.96
2018-12-09T05:43:12.821Z,98524.00
2018-12-09T05:45:40.258Z,98525.83
2018-12-09T05:48:07.642Z,98529.04
2018-12-09T05:50:35.033Z,98536.47
2018-12-09T05:53:02.422Z,98541.86
2018-12-09T05:55:30.228Z,98542.47
2018-12-09T05:57:57.607Z,98552.73
2018-12-09T06:00:25.003Z,98549.68
2018-12-09T06:02:54.313Z,98558.72
2018-12-09T06:05:21.703Z,98554.02
2018-12-09T06:07:49.659Z,98560.97
2018-12-09T06:10:17.053Z,98561.23
2018-12-09T06:12:44.496Z,98573.52
2018-12-09T06:15:11.894Z,98565.70
2018-12-09T06:17:39.354Z,98563.26
2018-12-09T06:20:06.735Z,98565.73
2018-12-09T06:22:34.170Z,98572.95
2018-12-09T06:25:01.998Z,98569.42
2018-12-09T06:27:29.598Z,98575.55
2018-12-09T06:29:57.050Z,98586.94
2018-12-09T06:32:24.468Z,98578.59
2018-12-09T06:34:51.858Z,98580.58
2018-12-09T06:37:19.631Z,98583.50
2018-12-09T06:39:47.066Z,98593.02
2018-12-09T06:42:14.467Z,98590.33
2018-12-09T06:44:41.878Z,98594.11
2018-12-09T06:47:09.455Z,98586.03
2018-12-09T06:49:36.998Z,98578.08
2018-12-09T06:52:04.401Z,98599.55
2018-12-09T06:54:31.840Z,98609.50
2018-12-09T06:56:59.288Z,98612.63
2018-12-09T06:59:27.135Z,98614.84
2018-12-09T07:01:54.562Z,98618.39
2018-12-09T07:04:23.006Z,98615.80
2018-12-09T07:06:50.402Z,98617.69
2018-12-09T07:09:17.806Z,98623.61
2018-12-09T07:11:45.189Z,98629.65
2018-12-09T07:14:12.613Z,98633.66
2018-12-09T07:16:40.005Z,98638.80
2018-12-09T07:19:07.410Z,98644.23
2018-12-09T07:21:34.877Z,98642.41
2018-12-09T07:24:02.293Z,98653.25
2018-12-09T07:26:29.694Z,98659.02
2018-12-09T07:28:57.222Z,98662.03
2018-12-09T07:31:24.666Z,98663.86
2018-12-09T07:33:52.055Z,98664.16
2018-12-09T07:36:19.421Z,98667.33
2018-12-09T07:38:47.337Z,98669.23
2018-12-09T07:41:14.730Z,98680.38
2018-12-09T07:43:42.142Z,98680.86
2018-12-09T07:46:09.598Z,98674.57
2018-12-09T07:48:37.004Z,98687.61
2018-12-09T07:51:04.381Z,98683.52
2018-12-09T07:53:31.803Z,98681.20
2018-12-09T07:56:02.875Z,98691.23
2018-12-09T07:58:30.490Z,98692.08
2018-12-09T08:00:57.894Z,98701.39
2018-12-09T08:03:25.280Z,98698.84
2018-12-09T08:05:52.701Z,98702.33
2018-12-09T08:08:20.102Z,98706.60
2018-12-09T08:10:47.480Z,98709.85
2018-12-09T08:13:14.891Z,98707.09
2018-12-09T08:15:44.308Z,98716.51
2018-12-09T08:18:15.386Z,98727.05
2018-12-09T08:20:42.788Z,98729.67
2018-12-09T08:23:10.174Z,98739.91
2018-12-09T08:25:37.576Z,98742.70
2018-12-09T08:28:04.975Z,98740.11
2018-12-09T08:30:32.355Z,98754.78
2018-12-09T08:32:59.782Z,98747.73
2018-12-09T08:35:27.209Z,98756.50
2018-12-09T08:37:54.676Z,98744.30
2018-12-09T08:40:22.272Z,98757.06
2018-12-09T08:42:49.716Z,98762.98
2018-12-09T08:45:17.253Z,98768.14
2018-12-09T08:47:44.709Z,98767.23
2018-12-09T08:50:12.170Z,98773.97
2018-12-09T08:52:39.778Z,98772.05
2018-12-09T08:55:07.306Z,98774.27
2018-12-09T08:57:34.702Z,98774.00
2018-12-09T09:00:02.109Z,98781.34
2018-12-09T09:02:29.502Z,98801.23
2018-12-09T09:04:56.869Z,98803.63
2018-12-09T09:07:24.394Z,98808.98
2018-12-09T09:09:51.832Z,98802.27
2018-12-09T09:12:19.213Z,98795.00
2018-12-09T09:14:46.644Z,98796.82
2018-12-09T09:17:14.055Z,98797.08
2018-12-09T09:19:41.469Z,98806.98
2018-12-09T09:22:08.845Z,98817.23
2018-12-09T09:24:36.259Z,98832.67
2018-12-09T09:27:03.751Z,98825.77
2018-12-09T09:29:31.315Z,98819.48
2018-12-09T09:31:58.726Z,98814.25
2018-12-09T09:34:27.288Z,98829.41
2018-12-09T09:36:54.866Z,98837.67
2018-12-09T09:39:22.428Z,98829.39
2018-12-09T09:41:49.845Z,98831.22
2018-12-09T09:44:17.257Z,98830.23
2018-12-09T09:46:44.667Z,98833.31
2018-12-09T09:49:12.170Z,98832.72
2018-12-09T09:51:39.550Z,98833.86
2018-12-09T09:54:06.957Z,98838.69
2018-12-09T09:56:34.470Z,98848.38
2018-12-09T09:59:01.861Z,98832.59
2018-12-09T10:01:29.345Z,98855.27
2018-12-09T10:03:57.390Z,98863.73
2018-12-09T10:06:25.007Z,98859.78
2018-12-09T10:08:52.643Z,98858.95
2018-12-09T10:11:20.104Z,98863.82
2018-12-09T10:13:48.538Z,98863.46
2018-12-09T10:16:22.826Z,98861.20
2018-12-09T10:18:51.765Z,98865.55
2018-12-09T10:21:19.976Z,98857.95
2018-12-09T10:23:47.442Z,98863.89
2018-12-09T10:26:14.897Z,98866.11
2018-12-09T10:28:42.310Z,98874.30
2018-12-09T10:31:09.748Z,98881.23
2018-12-09T10:36:21.544Z,98893.74
2018-12-09T10:38:48.938Z,98889.47
2018-12-09T10:41:16.434Z,98883.25
2018-12-09T10:43:43.952Z,98880.64
2018-12-09T10:46:12.060Z,98888.72
2018-12-09T10:48:39.439Z,98884.32
2018-12-09T10:51:06.814Z,98884.32
2018-12-09T10:53:34.192Z,98882.10
2018-12-09T10:56:01.594Z,98881.71
2018-12-09T10:58:28.989Z,98884.80
2018-12-09T11:01:01.957Z,98885.36
2018-12-09T11:03:29.373Z,98891.61
2018-12-09T11:05:56.754Z,98891.61
2018-12-09T11:08:24.150Z,98888.91
2018-12-09T11:10:51.591Z,98895.64
2018-12-09T11:13:19.106Z,98898.61
2018-12-09T11:15:46.645Z,98905.26
2018-12-09T11:18:14.027Z,98914.48
2018-12-09T11:20:41.518Z,98912.94
2018-12-09T11:23:09.335Z,98914.72
2018-12-09T11:25:37.040Z,98916.77
2018-12-09T11:28:04.434Z,98918.86
2018-12-09T11:30:31.878Z,98921.36
2018-12-09T11:33:02.958Z,98921.36
2018-12-09T11:35:30.435Z,98927.52
2018-12-09T11:37:58.957Z,98935.09
2018-12-09T11:40:26.432Z,98926.34
2018-12-09T11:42:53.814Z,98928.55
2018-12-09T11:45:21.202Z,98930.38
2018-12-09T11:47:48.735Z,98928.55
2018-12-09T11:50:16.123Z,98936.24
2018-12-09T11:52:43.503Z,98930.86
2018-12-09T11:55:11.038Z,98935.02
2018-12-09T11:57:38.430Z,98935.28
2018-12-09T12:00:08.985Z,98934.48
2018-12-09T12:02:36.370Z,98939.01
2018-12-09T12:05:03.810Z,98937.23
2018-12-09T12:07:31.257Z,98945.98
2018-12-09T12:09:58.649Z,98940.69
2018-12-09T12:12:26.813Z,98935.69
2018-12-09T12:14:54.246Z,98939.41
2018-12-09T12:17:21.671Z,98939.13
2018-12-09T12:19:49.050Z,98936.52
2018-12-09T12:22:17.535Z,98942.50
2018-12-09T12:24:44.957Z,98945.31
2018-12-09T12:27:12.357Z,98949.63
2018-12-09T12:29:39.741Z,98951.13
2018-12-09T12:32:07.125Z,98960.75
2018-12-09T12:34:34.514Z,98954.88
2018-12-09T12:37:01.988Z,98959.80
2018-12-09T12:39:29.397Z,98955.56
2018-12-09T12:41:56.777Z,98962.09
2018-12-09T12:44:24.172Z,98969.22
2018-12-09T12:46:51.569Z,98968.71
2018-12-09T12:49:18.957Z,98985.66
2018-12-09T12:51:46.409Z,98987.84
2018-12-09T12:54:13.805Z,98988.63
2018-12-09T12:56:41.402Z,99002.97
2018-12-09T12:59:09.701Z,98999.48
2018-12-09T13:01:37.106Z,98994.17
2018-12-09T13:04:05.287Z,98997.66
2018-12-09T13:06:32.813Z,99004.86
2018-12-09T13:09:00.234Z,99019.89
2018-12-09T13:11:27.638Z,99028.80
2018-12-09T13:13:55.083Z,99033.83
2018-12-09T13:16:22.473Z,99037.95
2018-12-09T13:18:49.882Z,99034.86
2018-12-09T13:21:17.342Z,99029.16
2018-12-09T13:23:44.754Z,99025.95
2018-12-09T13:26:13.033Z,99033.23
2018-12-09T13:29:23.790Z,99034.02
2018-12-09T13:31:57.872Z,99047.42
2018-12-09T13:34:30.752Z,99059.62
2018-12-09T13:37:01.676Z,99062.44
2018-12-09T13:39:29.346Z,99069.53
2018-12-09T13:41:56.905Z,99069.53
2018-12-09T13:44:24.532Z,99076.38
2018-12-09T13:46:52.135Z,99080.90
2018-12-09T13:49:19.701Z,99084.46
2018-12-09T13:51:47.357Z,99092.23
2018-12-09T13:54:14.812Z,99090.61
2018-12-09T13:56:42.399Z,99094.25
2018-12-09T13:59:09.960Z,99098.80
2018-12-09T14:01:37.482Z,99108.79
2018-12-09T14:04:05.029Z,99104.47
2018-12-09T14:06:32.540Z,99108.98
2018-12-09T14:09:00.152Z,99116.31
2018-12-09T14:11:29.100Z,99124.78
2018-12-09T14:13:56.875Z,99125.27
2018-12-09T14:16:25.420Z,99128.34
2018-12-09T14:18:52.899Z,99150.73
2018-12-09T14:21:20.463Z,99159.69
2018-12-09T14:23:48.093Z,99153.43
2018-12-09T14:26:15.692Z,99165.88
2018-12-09T14:28:43.351Z,99183.46
2018-12-09T14:31:10.880Z,99178.08
2018-12-09T14:33:38.330Z,99178.08
2018-12-09T14:36:05.819Z,99178.55
2018-12-09T14:38:33.318Z,99193.17
2018-12-09T14:41:01.087Z,99200.89
2018-12-09T14:43:28.629Z,99209.81
2018-12-09T14:45:56.206Z,99212.14
2018-12-09T14:48:23.664Z,99223.00
2018-12-09T14:50:51.115Z,99222.52
2018-12-09T14:53:19.097Z,99231.87
2018-12-09T14:55:46.545Z,99228.97
2018-12-09T14:58:14.017Z,99241.85
2018-12-09T15:00:41.480Z,99244.47
2018-12-09T15:03:08.956Z,99260.23
2018-12-09T15:05:36.469Z,99257.66
2018-12-09T15:08:03.967Z,99273.31
2018-12-09T15:10:31.807Z,99270.14
2018-12-09T15:12:59.279Z,99269.97
2018-12-09T15:15:27.043Z,99278.70
2018-12-09T15:17:55.722Z,99288.23
2018-12-09T15:20:30.295Z,99287.47
2018-12-09T15:22:57.751Z,99298.14
2018-12-09T15:25:25.257Z,99299.67
2018-12-09T15:27:52.757Z,99302.36
2018-12-09T15:30:20.467Z,99304.30
2018-12-09T15:32:48.023Z,99303.42
2018-12-09T15:35:15.667Z,99314.19
2018-12-09T15:37:43.143Z,99331.70
2018-12-09T15:40:10.616Z,99325.44
2018-12-09T15:42:38.066Z,99326.02
2018-12-09T15:45:06.323Z,99326.89
2018-12-09T15:47:33.985Z,99327.77
2018-12-09T15:50:01.523Z,99331.70
2018-12-09T15:52:29.228Z,99340.84
2018-12-09T15:54:56.903Z,99357.58
2018-12-09T15:57:24.379Z,99361.98
2018-12-09T15:59:51.912Z,99362.86
2018-12-09T16:02:19.564Z,99376.80
2018-12-09T16:04:47.087Z,99384.70
2018-12-09T16:07:14.665Z,99379.61
2018-12-09T16:09:42.174Z,99384.81
2018-12-09T16:12:09.648Z,99390.67
2018-12-09T16:14:37.228Z,99392.42
2018-12-09T16:17:04.880Z,99405.42
2018-12-09T16:19:32.381Z,99403.48
2018-12-09T16:22:00.029Z,99411.58
2018-12-09T16:24:27.542Z,99422.75
2018-12-09T16:26:55.067Z,99435.64
2018-12-09T16:29:22.548Z,99429.09
2018-12-09T16:31:50.027Z,99433.23
2018-12-09T16:34:17.640Z,99440.73
2018-12-09T16:36:45.100Z,99442.95
2018-12-09T16:39:12.585Z,99444.88
2018-12-09T16:41:40.307Z,99450.74
2018-12-09T16:44:08.141Z,99456.30
2018-12-09T16:46:35.643Z,99464.28
2018-12-09T16:49:03.089Z,99458.13
2018-12-09T16:51:30.605Z,99468.91
2018-12-09T16:53:58.262Z,99471.70
2018-12-09T16:56:25.821Z,99476.52
2018-12-09T16:58:53.317Z,99489.21
2018-12-09T17:01:20.816Z,99494.67
2018-12-09T17:03:48.281Z,99501.98
2018-12-09T17:06:15.765Z,99503.33
2018-12-09T17:08:43.352Z,99514.17
2018-12-09T17:11:10.831Z,99526.52
2018-12-09T17:13:38.309Z,99530.73
2018-12-09T17:16:05.811Z,99529.80
2018-12-09T17:18:33.352Z,99543.80
2018-12-09T17:21:00.976Z,99550.94
2018-12-09T17:23:28.499Z,99563.23
2018-12-09T17:25:56.006Z,99564.13
2018-12-09T17:28:23.507Z,99570.22
2018-12-09T17:30:51.008Z,99569.28
2018-12-09T17:33:18.491Z,99580.93
2018-12-09T17:35:46.085Z,99581.77
2018-12-09T17:38:13.520Z,99586.32
2018-12-09T17:40:40.981Z,99602.86
2018-12-09T17:43:08.495Z,99596.59
2018-12-09T17:45:36.008Z,99609.05
2018-12-09T17:48:03.578Z,99616.16
2018-12-09T17:50:31.131Z,99627.33
2018-12-09T17:52:58.603Z,99637.54
2018-12-09T17:55:26.466Z,99647.98
2018-12-09T17:57:54.476Z,99657.81
2018-12-09T18:00:21.978Z,99660.58
2018-12-09T18:02:49.635Z,99663.20
2018-12-09T18:05:17.247Z,99671.39
2018-12-09T18:07:44.820Z,99674.25
2018-12-09T18:10:12.315Z,99671.08
2018-12-09T18:12:47.711Z,99673.51
2018-12-09T18:15:13.512Z,99675.06
2018-12-09T18:17:41.007Z,99681.55
2018-12-09T18:20:08.487Z,99693.68
2018-12-09T18:22:35.942Z,99699.23
2018-12-09T18:25:03.489Z,99704.52
2018-12-09T18:27:30.951Z,99722.75
2018-12-09T18:29:58.428Z,99726.95
2018-12-09T18:32:26.027Z,99726.95
2018-12-09T18:34:53.722Z,99736.01
2018-12-09T18:37:21.375Z,99739.23
2018-12-09T18:39:48.853Z,99739.23
2018-12-09T18:42:16.414Z,99748.30
2018-12-09T18:44:43.902Z,99751.46
2018-12-09T18:47:11.939Z,99751.16
2018-12-09T18:49:39.768Z,99763.65
2018-12-09T18:52:07.323Z,99770.79
2018-12-09T18:54:35.059Z,99771.73
2018-12-09T18:57:03.840Z,99776.34
2018-12-09T18:59:31.542Z,99784.05
2018-12-09T19:01:59.000Z,99789.97
2018-12-09T19:04:26.590Z,99783.39
2018-12-09T19:06:54.127Z,99791.47
2018-12-09T19:09:22.933Z,99804.47
2018-12-09T19:11:50.676Z,99809.55
2018-12-09T19:14:18.325Z,99816.75
2018-12-09T19:16:45.883Z,99822.14
2018-12-09T19:19:13.795Z,99828.50
2018-12-09T19:21:41.311Z,99825.30
2018-12-09T19:24:09.081Z,99837.05
2018-12-09T19:26:37.078Z,99831.34
2018-12-09T19:29:06.181Z,99832.03
2018-12-09T19:31:35.864Z,99838.77
2018-12-09T19:34:03.766Z,99845.65
2018-12-09T19:36:31.869Z,99853.57
2018-12-09T19:38:59.364Z,99863.82
2018-12-09T19:41:26.836Z,99864.76
2018-12-09T19:43:54.501Z,99875.95
2018-12-09T19:46:21.969Z,99890.67
2018-12-09T19:48:49.515Z,99894.46
2018-12-09T19:51:17.099Z,99891.77
2018-12-09T19:53:46.015Z,99906.68
2018-12-09T19:56:13.609Z,99908.50
2018-12-09T19:58:41.155Z,99916.98
2018-12-09T20:01:08.704Z,99917.46
2018-12-09T20:03:36.269Z,99928.65
2018-12-09T20:06:03.838Z,99925.70
2018-12-09T20:08:32.532Z,99942.75
2018-12-09T20:11:01.082Z,99950.11
2018-12-09T20:13:28.588Z,99959.95
2018-12-09T20:15:56.004Z,99958.59
2018-12-09T20:18:23.552Z,99970.78
2018-12-09T20:20:51.025Z,99978.08
2018-12-09T20:23:18.606Z,99988.30
2018-12-09T20:25:46.268Z,99991.45
2018-12-09T20:28:14.857Z,99993.45
2018-12-09T20:30:45.070Z,100002.42
2018-12-09T20:33:13.371Z,100009.63
2018-12-09T20:35:41.397Z,100010.00
2018-12-09T20:38:10.245Z,100015.48
2018-12-09T20:40:37.848Z,100022.12
2018-12-09T20:43:05.604Z,100032.91
2018-12-09T20:45:34.376Z,100030.30
2018-12-09T20:48:02.010Z,100032.20
2018-12-09T20:50:29.735Z,100037.97
2018-12-09T20:52:57.506Z,100036.30
2018-12-09T20:55:25.808Z,100039.09
2018-12-09T20:57:53.882Z,100046.76
2018-12-09T21:00:21.529Z,100055.57
2018-12-09T21:02:49.288Z,100070.71
2018-12-09T21:05:17.283Z,100061.19
2018-12-09T21:07:46.115Z,100061.92
2018-12-09T21:10:13.685Z,100073.99
2018-12-09T21:12:41.158Z,100066.70
2018-12-09T21:15:09.248Z,100072.08
2018-12-09T21:17:37.572Z,100087.22
2018-12-09T21:20:05.296Z,100078.98
2018-12-09T21:22:32.786Z,100083.09
2018-12-09T21:25:00.255Z,100084.94
2018-12-09T21:27:27.947Z,100098.94
2018-12-09T21:29:55.759Z,100102.52
2018-12-09T21:32:23.920Z,100106.97
2018-12-09T21:34:52.431Z,100113.29
2018-12-09T21:37:20.018Z,100120.49
2018-12-09T21:39:47.873Z,100122.40
2018-12-09T21:42:15.485Z,100128.67
2018-12-09T21:44:42.988Z,100131.83
2018-12-09T21:47:10.560Z,100144.42
2018-12-09T21:49:38.000Z,100134.62
2018-12-09T21:52:05.887Z,100139.13
2018-12-09T21:54:33.579Z,100137.92
2018-12-09T21:57:01.091Z,100140.76
2018-12-09T21:59:28.528Z,100147.17
2018-12-09T22:01:56.026Z,100155.11
2018-12-09T22:04:23.471Z,100159.77
2018-12-09T22:06:51.346Z,100171.15
2018-12-09T22:09:19.232Z,100175.75
2018-12-09T22:11:46.744Z,100177.79
2018-12-09T22:14:14.224Z,100186.25
2018-12-09T22:16:41.664Z,100196.17
2018-12-09T22:19:09.096Z,100202.50
2018-12-09T22:21:36.749Z,100201.58
2018-12-09T22:24:04.595Z,100207.94
2018-12-09T22:26:32.417Z,100202.93
2018-12-09T22:28:59.850Z,100217.36
2018-12-09T22:31:27.303Z,100214.16
2018-12-09T22:33:54.792Z,100226.66
2018-12-09T22:36:23.365Z,100225.03
2018-12-09T22:38:51.251Z,100228.88
2018-12-09T22:41:18.784Z,100232.69
2018-12-09T22:43:46.267Z,100237.02
2018-12-09T22:46:14.253Z,100245.56
2018-12-09T22:48:41.703Z,100243.06
2018-12-09T22:51:09.143Z,100249.60
2018-12-09T22:53:36.581Z,100248.25
2018-12-09T22:56:04.087Z,100253.97
2018-12-09T22:58:31.545Z,100257.55
2018-12-09T23:01:04.505Z,100250.16
2018-12-09T23:03:32.168Z,100273.77
2018-12-09T23:05:59.647Z,100280.50
2018-12-09T23:08:27.352Z,100239.84
2018-12-09T23:10:54.836Z,100291.89
2018-12-09T23:13:22.327Z,100284.87
2018-12-09T23:15:49.852Z,100285.15
2018-12-09T23:18:17.292Z,100290.95
2018-12-09T23:20:45.192Z,100297.64
2018-12-09T23:23:12.651Z,100299.50
2018-12-09T23:25:40.157Z,100308.47
2018-12-09T23:28:07.603Z,100314.46
2018-12-09T23:30:35.275Z,100322.16
2018-12-09T23:33:02.835Z,100332.99
2018-12-09T23:35:30.371Z,100318.64
2018-12-09T23:37:57.951Z,100331.73
2018-12-09T23:40:25.388Z,100334.01
2018-12-09T23:42:52.880Z,100332.61
2018-12-09T23:45:20.346Z,100336.10
2018-12-09T23:47:47.795Z,100343.77
2018-12-09T23:50:15.242Z,100342.42
2018-12-09T23:52:42.737Z,100340.47
2018-12-09T23:55:10.185Z,100341.91
2018-12-09T23:57:37.654Z,100347.77
